createdAt,value
2019-03-31T00:00:49.670Z,30.90
2019-03-31T00:01:56.008Z,31.77
2019-03-31T00:03:01.682Z,33.63
2019-03-31T00:04:07.076Z,34.08
2019-03-31T00:05:12.739Z,29.70
2019-03-31T00:06:18.685Z,33.10
2019-03-31T00:07:24.271Z,32.67
2019-03-31T00:08:29.727Z,33.57
2019-03-31T00:09:37.605Z,33.83
2019-03-31T00:10:42.859Z,32.47
2019-03-31T00:11:48.168Z,32.85
2019-03-31T00:12:53.425Z,32.73
2019-03-31T00:13:58.667Z,31.10
2019-03-31T00:15:04.441Z,33.97
2019-03-31T00:16:09.620Z,32.13
2019-03-31T00:17:16.032Z,33.20
2019-03-31T00:18:21.180Z,34.60
2019-03-31T00:19:26.498Z,33.70
2019-03-31T00:20:31.938Z,34.23
2019-03-31T00:21:37.399Z,33.77
2019-03-31T00:22:42.659Z,33.57
2019-03-31T00:23:47.887Z,34.73
2019-03-31T00:24:53.659Z,33.60
2019-03-31T00:25:59.011Z,34.97
2019-03-31T00:27:04.569Z,33.67
2019-03-31T00:28:09.870Z,34.00
2019-03-31T00:29:15.465Z,35.30
2019-03-31T00:30:20.740Z,33.92
2019-03-31T00:31:26.055Z,34.90
2019-03-31T00:32:31.704Z,33.83
2019-03-31T00:33:39.657Z,35.33
2019-03-31T00:34:44.994Z,34.33
2019-03-31T00:35:50.280Z,34.23
2019-03-31T00:36:55.672Z,33.87
2019-03-31T00:38:01.039Z,34.00
2019-03-31T00:39:08.731Z,35.07
2019-03-31T00:40:14.193Z,34.40
2019-03-31T00:41:19.508Z,35.23
2019-03-31T00:42:24.713Z,33.03
2019-03-31T00:43:30.195Z,35.43
2019-03-31T00:44:35.567Z,34.60
2019-03-31T00:45:40.981Z,34.47
2019-03-31T00:46:46.204Z,35.73
2019-03-31T00:47:51.532Z,33.97
2019-03-31T00:48:56.876Z,34.77
2019-03-31T00:50:02.183Z,35.23
2019-03-31T00:51:07.504Z,35.03
2019-03-31T00:52:12.779Z,35.97
2019-03-31T00:53:18.471Z,32.25
2019-03-31T00:54:23.738Z,34.00
2019-03-31T00:55:29.129Z,35.90
2019-03-31T00:56:34.466Z,34.83
2019-03-31T00:57:39.964Z,36.93
2019-03-31T00:58:45.293Z,33.87
2019-03-31T00:59:50.594Z,35.80
2019-03-31T01:01:15.460Z,34.80
2019-03-31T01:02:25.497Z,34.43
2019-03-31T01:03:32.411Z,35.97
2019-03-31T01:04:38.915Z,33.70
2019-03-31T01:05:45.053Z,33.90
2019-03-31T01:06:54.410Z,34.25
2019-03-31T01:08:00.845Z,34.65
2019-03-31T01:09:19.275Z,35.70
2019-03-31T01:10:25.096Z,35.17
2019-03-31T01:11:30.718Z,33.63
2019-03-31T01:12:36.260Z,35.87
2019-03-31T01:13:41.884Z,36.10
2019-03-31T01:14:47.247Z,35.57
2019-03-31T01:15:55.648Z,35.37
2019-03-31T01:17:02.346Z,33.47
2019-03-31T01:18:08.562Z,36.10
2019-03-31T01:19:14.485Z,34.63
2019-03-31T01:20:19.845Z,35.20
2019-03-31T01:21:25.181Z,35.37
2019-03-31T01:22:30.593Z,36.47
2019-03-31T01:23:36.385Z,36.10
2019-03-31T01:24:41.681Z,35.87
2019-03-31T01:25:47.112Z,35.40
2019-03-31T01:26:52.581Z,36.40
2019-03-31T01:27:58.109Z,35.30
2019-03-31T01:29:03.869Z,37.20
2019-03-31T01:30:10.370Z,34.83
2019-03-31T01:31:15.724Z,34.40
2019-03-31T01:32:21.162Z,36.43
2019-03-31T01:33:26.695Z,36.97
2019-03-31T01:34:32.139Z,35.10
2019-03-31T01:35:40.373Z,34.97
2019-03-31T01:36:45.705Z,36.50
2019-03-31T01:37:51.035Z,35.87
2019-03-31T01:38:56.742Z,36.30
2019-03-31T01:40:02.107Z,37.83
2019-03-31T01:41:07.463Z,35.93
2019-03-31T01:42:12.848Z,35.07
2019-03-31T01:43:18.381Z,36.63
2019-03-31T01:44:23.949Z,37.20
2019-03-31T01:45:29.376Z,37.53
2019-03-31T01:46:34.974Z,36.60
2019-03-31T01:47:40.561Z,36.77
2019-03-31T01:48:45.892Z,36.63
2019-03-31T01:49:51.139Z,36.10
2019-03-31T01:50:56.503Z,38.07
2019-03-31T01:52:02.015Z,36.93
2019-03-31T01:53:07.625Z,35.70
2019-03-31T01:54:13.278Z,37.50
2019-03-31T01:55:20.488Z,36.70
2019-03-31T01:56:26.569Z,37.07
2019-03-31T01:57:32.562Z,37.40
2019-03-31T01:58:38.642Z,37.85
2019-03-31T01:59:47.027Z,37.43
2019-03-31T02:00:56.132Z,35.70
2019-03-31T02:02:04.298Z,37.07
2019-03-31T02:03:09.885Z,37.97
2019-03-31T02:04:16.090Z,37.27
2019-03-31T02:05:22.060Z,37.37
2019-03-31T02:06:28.069Z,38.03
2019-03-31T02:07:34.249Z,37.20
2019-03-31T02:08:40.702Z,37.40
2019-03-31T02:09:46.799Z,38.53
2019-03-31T02:10:52.850Z,38.17
2019-03-31T02:11:58.875Z,38.73
2019-03-31T02:13:04.951Z,39.50
2019-03-31T02:14:10.289Z,40.47
2019-03-31T02:15:16.461Z,38.07
2019-03-31T02:16:22.359Z,40.17
2019-03-31T02:17:28.398Z,38.07
2019-03-31T02:18:34.357Z,39.90
2019-03-31T02:19:40.214Z,40.23
2019-03-31T02:20:46.228Z,39.83
2019-03-31T02:21:52.791Z,39.83
2019-03-31T02:22:58.751Z,38.37
2019-03-31T02:24:04.873Z,39.80
2019-03-31T02:25:10.914Z,41.60
2019-03-31T02:26:17.102Z,41.30
2019-03-31T02:27:23.039Z,40.27
2019-03-31T02:28:29.324Z,40.87
2019-03-31T02:29:35.291Z,39.73
2019-03-31T02:30:41.327Z,40.37
2019-03-31T02:31:48.040Z,41.07
2019-03-31T02:32:54.141Z,40.37
2019-03-31T02:34:00.306Z,38.47
2019-03-31T02:35:06.542Z,39.20
2019-03-31T02:36:12.429Z,39.80
2019-03-31T02:37:18.556Z,39.03
2019-03-31T02:38:24.484Z,38.27
2019-03-31T02:39:30.476Z,40.70
2019-03-31T02:40:36.812Z,40.13
2019-03-31T02:41:43.106Z,43.87
2019-03-31T02:42:49.164Z,41.33
2019-03-31T02:43:55.622Z,42.03
2019-03-31T02:45:01.501Z,41.03
2019-03-31T02:46:07.756Z,41.17
2019-03-31T02:47:13.779Z,40.30
2019-03-31T02:48:20.056Z,41.17
2019-03-31T02:49:26.126Z,41.20
2019-03-31T02:50:47.389Z,42.10
2019-03-31T02:51:53.564Z,43.23
2019-03-31T02:52:59.552Z,42.90
2019-03-31T02:54:05.867Z,42.73
2019-03-31T02:55:11.905Z,40.87
2019-03-31T02:56:18.839Z,43.80
2019-03-31T02:57:25.839Z,42.30
2019-03-31T02:58:32.769Z,42.97
2019-03-31T02:59:39.023Z,41.87
2019-03-31T03:00:45.396Z,44.77
2019-03-31T03:01:53.179Z,40.57
2019-03-31T03:03:00.256Z,43.10
2019-03-31T03:04:08.039Z,41.30
2019-03-31T03:05:19.721Z,41.90
2019-03-31T03:06:23.878Z,44.53
2019-03-31T03:07:31.050Z,42.53
2019-03-31T03:08:38.936Z,43.10
2019-03-31T03:09:46.869Z,46.23
2019-03-31T03:10:55.003Z,42.67
2019-03-31T03:12:01.535Z,41.23
2019-03-31T03:13:10.200Z,42.07
2019-03-31T03:14:17.683Z,42.60
2019-03-31T03:15:31.030Z,41.63
2019-03-31T03:16:37.208Z,43.40
2019-03-31T03:17:43.255Z,40.93
2019-03-31T03:18:50.087Z,41.97
2019-03-31T03:19:56.323Z,41.43
2019-03-31T03:21:02.402Z,41.40
2019-03-31T03:22:08.492Z,42.70
2019-03-31T03:23:14.679Z,39.60
2019-03-31T03:24:20.751Z,39.67
2019-03-31T03:25:26.584Z,40.80
2019-03-31T03:26:32.825Z,41.33
2019-03-31T03:27:38.716Z,40.87
2019-03-31T03:28:44.822Z,40.63
2019-03-31T03:29:50.999Z,38.40
2019-03-31T03:30:57.331Z,37.97
2019-03-31T03:32:03.660Z,39.30
2019-03-31T03:33:16.445Z,38.53
2019-03-31T03:34:17.343Z,37.80
2019-03-31T03:35:23.365Z,39.83
2019-03-31T03:36:29.234Z,39.77
2019-03-31T03:37:35.351Z,38.10
2019-03-31T03:38:41.531Z,38.47
2019-03-31T03:39:47.453Z,37.93
2019-03-31T03:40:53.395Z,37.27
2019-03-31T03:41:59.627Z,36.63
2019-03-31T03:43:05.667Z,37.63
2019-03-31T03:44:11.834Z,36.43
2019-03-31T03:45:17.965Z,36.90
2019-03-31T03:46:23.683Z,38.53
2019-03-31T03:47:29.046Z,37.53
2019-03-31T03:48:34.707Z,36.40
2019-03-31T03:49:40.240Z,36.97
2019-03-31T03:50:45.519Z,34.70
2019-03-31T03:51:51.305Z,36.43
2019-03-31T03:52:56.567Z,36.00
2019-03-31T03:54:01.925Z,36.80
2019-03-31T03:55:07.197Z,38.93
2019-03-31T03:56:12.465Z,35.73
2019-03-31T03:57:17.762Z,36.67
2019-03-31T03:58:23.120Z,37.07
2019-03-31T03:59:28.533Z,36.00
2019-03-31T04:00:33.903Z,35.50
2019-03-31T04:01:39.278Z,34.57
2019-03-31T04:02:44.547Z,34.30
2019-03-31T04:03:50.258Z,34.83
2019-03-31T04:04:55.509Z,33.90
2019-03-31T04:06:00.872Z,34.07
2019-03-31T04:07:06.068Z,36.10
2019-03-31T04:08:11.321Z,33.37
2019-03-31T04:09:16.769Z,34.83
2019-03-31T04:11:11.443Z,33.77
2019-03-31T04:12:16.803Z,32.10
2019-03-31T04:13:22.109Z,33.70
2019-03-31T04:14:27.445Z,34.63
2019-03-31T04:15:32.887Z,35.20
2019-03-31T04:16:38.211Z,35.00
2019-03-31T04:17:43.487Z,33.57
2019-03-31T04:18:48.855Z,30.63
2019-03-31T04:19:54.195Z,33.77
2019-03-31T04:20:59.475Z,31.10
2019-03-31T04:22:04.718Z,31.97
2019-03-31T04:23:10.023Z,30.83
2019-03-31T04:24:15.331Z,33.90
2019-03-31T04:25:20.611Z,31.77
2019-03-31T04:26:26.106Z,31.23
2019-03-31T04:27:31.443Z,31.20
2019-03-31T04:28:36.685Z,31.40
2019-03-31T04:29:41.857Z,30.23
2019-03-31T04:30:47.118Z,31.47
2019-03-31T04:31:52.694Z,31.57
2019-03-31T04:32:57.947Z,31.53
2019-03-31T04:34:03.194Z,30.20
2019-03-31T04:35:08.438Z,31.10
2019-03-31T04:36:13.729Z,31.00
2019-03-31T04:37:18.938Z,31.00
2019-03-31T04:38:24.190Z,31.50
2019-03-31T04:39:29.438Z,30.40
2019-03-31T04:40:35.110Z,28.73
2019-03-31T04:41:40.429Z,29.80
2019-03-31T04:42:45.831Z,30.70
2019-03-31T04:43:51.591Z,28.50
2019-03-31T04:44:56.855Z,30.37
2019-03-31T04:46:02.153Z,29.20
2019-03-31T04:47:07.402Z,29.70
2019-03-31T04:48:12.751Z,29.60
2019-03-31T04:49:17.997Z,29.70
2019-03-31T04:50:23.319Z,28.93
2019-03-31T04:51:28.682Z,29.13
2019-03-31T04:52:33.973Z,26.50
2019-03-31T04:53:39.324Z,29.17
2019-03-31T04:54:44.641Z,27.37
2019-03-31T04:55:50.144Z,29.83
2019-03-31T04:56:55.373Z,29.00
2019-03-31T04:58:00.668Z,27.60
2019-03-31T04:59:06.005Z,27.03
2019-03-31T05:00:11.393Z,27.63
2019-03-31T05:01:16.734Z,27.37
2019-03-31T05:02:22.343Z,25.90
2019-03-31T05:03:27.640Z,27.43
2019-03-31T05:04:32.921Z,27.87
2019-03-31T05:05:38.200Z,26.93
2019-03-31T05:06:43.572Z,27.07
2019-03-31T05:07:48.910Z,26.40
2019-03-31T05:08:54.473Z,26.30
2019-03-31T05:09:59.775Z,27.27
2019-03-31T05:11:05.115Z,27.67
2019-03-31T05:12:12.149Z,27.33
2019-03-31T05:13:17.439Z,27.13
2019-03-31T05:14:25.495Z,26.90
2019-03-31T05:15:30.733Z,26.30
2019-03-31T05:16:35.961Z,26.23
2019-03-31T05:17:41.159Z,26.23
2019-03-31T05:18:46.446Z,26.37
2019-03-31T05:19:51.663Z,24.87
2019-03-31T05:20:56.917Z,25.67
2019-03-31T05:22:02.471Z,27.87
2019-03-31T05:23:07.784Z,24.33
2019-03-31T05:24:13.325Z,24.40
2019-03-31T05:25:18.554Z,25.77
2019-03-31T05:26:23.800Z,26.77
2019-03-31T05:27:29.105Z,26.20
2019-03-31T05:28:34.377Z,26.00
2019-03-31T05:29:39.628Z,26.00
2019-03-31T05:30:44.923Z,27.00
2019-03-31T05:31:50.379Z,25.17
2019-03-31T05:32:55.854Z,25.20
2019-03-31T05:34:01.492Z,25.93
2019-03-31T05:35:06.918Z,26.97
2019-03-31T05:36:12.284Z,27.97
2019-03-31T05:37:17.538Z,25.60
2019-03-31T05:38:23.373Z,27.17
2019-03-31T05:39:28.786Z,27.30
2019-03-31T05:40:33.995Z,25.80
2019-03-31T05:41:39.564Z,25.37
2019-03-31T05:42:44.899Z,25.90
2019-03-31T05:44:04.872Z,29.90
2019-03-31T05:44:57.962Z,26.10
2019-03-31T05:46:03.726Z,27.23
2019-03-31T05:47:09.225Z,26.90
2019-03-31T05:48:14.525Z,26.37
2019-03-31T05:49:20.246Z,25.47
2019-03-31T05:50:25.632Z,28.70
2019-03-31T05:51:31.311Z,28.90
2019-03-31T05:52:36.904Z,28.73
2019-03-31T05:53:42.359Z,27.97
2019-03-31T05:54:47.820Z,28.47
2019-03-31T05:55:53.195Z,28.37
2019-03-31T05:56:58.537Z,26.93
2019-03-31T05:58:04.025Z,28.10
2019-03-31T05:59:09.565Z,27.70
2019-03-31T06:00:17.852Z,28.30
2019-03-31T06:01:23.175Z,28.33
2019-03-31T06:02:28.626Z,28.37
2019-03-31T06:03:33.890Z,28.33
2019-03-31T06:04:39.217Z,30.27
2019-03-31T06:05:44.561Z,28.83
2019-03-31T06:06:49.773Z,27.53
2019-03-31T06:07:56.097Z,28.17
2019-03-31T06:09:01.328Z,27.40
2019-03-31T06:10:07.189Z,28.43
2019-03-31T06:11:12.465Z,28.03
2019-03-31T06:12:17.814Z,26.43
2019-03-31T06:13:23.014Z,27.03
2019-03-31T06:14:28.358Z,26.30
2019-03-31T06:15:33.636Z,26.20
2019-03-31T06:16:38.860Z,23.50
2019-03-31T06:17:44.125Z,25.93
2019-03-31T06:18:49.336Z,26.17
2019-03-31T06:19:54.874Z,24.10
2019-03-31T06:21:00.142Z,25.83
2019-03-31T06:22:05.482Z,25.83
2019-03-31T06:23:10.976Z,24.63
2019-03-31T06:24:16.263Z,26.10
2019-03-31T06:25:21.536Z,25.73
2019-03-31T06:26:26.869Z,26.43
2019-03-31T06:27:32.072Z,25.83
2019-03-31T06:28:37.358Z,25.97
2019-03-31T06:29:42.603Z,25.33
2019-03-31T06:30:47.944Z,25.00
2019-03-31T06:31:53.371Z,26.83
2019-03-31T06:32:58.607Z,26.37
2019-03-31T06:34:03.978Z,26.57
2019-03-31T06:35:09.355Z,25.10
2019-03-31T06:36:14.754Z,24.47
2019-03-31T06:37:20.011Z,23.10
2019-03-31T06:38:25.262Z,25.33
2019-03-31T06:39:34.006Z,25.83
2019-03-31T06:40:37.619Z,25.17
2019-03-31T06:41:42.954Z,25.30
2019-03-31T06:42:48.167Z,23.47
2019-03-31T06:43:53.676Z,24.97
2019-03-31T06:44:58.945Z,24.77
2019-03-31T06:46:04.308Z,24.30
2019-03-31T06:47:09.700Z,22.23
2019-03-31T06:48:15.021Z,24.57
2019-03-31T06:49:20.371Z,23.93
2019-03-31T06:50:25.760Z,21.93
2019-03-31T06:51:30.942Z,22.83
2019-03-31T06:52:36.398Z,23.37
2019-03-31T06:53:41.998Z,21.13
2019-03-31T06:54:47.233Z,23.23
2019-03-31T06:55:52.861Z,21.03
2019-03-31T06:56:58.135Z,23.80
2019-03-31T06:58:03.491Z,22.73
2019-03-31T06:59:08.757Z,22.10
2019-03-31T07:00:14.619Z,22.07
2019-03-31T07:01:20.018Z,21.90
2019-03-31T07:02:25.269Z,22.17
2019-03-31T07:03:30.570Z,23.27
2019-03-31T07:04:35.751Z,21.50
2019-03-31T07:05:41.308Z,22.63
2019-03-31T07:06:46.494Z,20.87
2019-03-31T07:07:52.343Z,21.73
2019-03-31T07:08:57.719Z,21.83
2019-03-31T07:10:02.963Z,21.40
2019-03-31T07:11:08.219Z,20.57
2019-03-31T07:12:13.544Z,20.53
2019-03-31T07:13:18.843Z,21.60
2019-03-31T07:14:24.249Z,21.27
2019-03-31T07:15:29.447Z,20.80
2019-03-31T07:16:34.769Z,21.50
2019-03-31T07:17:40.506Z,20.80
2019-03-31T07:18:45.809Z,21.27
2019-03-31T07:19:51.036Z,20.73
2019-03-31T07:20:56.414Z,21.20
2019-03-31T07:22:01.792Z,20.80
2019-03-31T07:23:07.198Z,20.90
2019-03-31T07:24:12.599Z,21.03
2019-03-31T07:25:17.891Z,20.57
2019-03-31T07:26:23.240Z,19.50
2019-03-31T07:27:28.461Z,19.48
2019-03-31T07:28:33.829Z,19.80
2019-03-31T07:29:39.133Z,19.70
2019-03-31T07:30:44.410Z,19.20
2019-03-31T07:31:49.841Z,19.52
2019-03-31T07:32:55.134Z,19.27
2019-03-31T07:34:00.414Z,20.37
2019-03-31T07:35:17.875Z,19.07
2019-03-31T07:36:12.848Z,21.43
2019-03-31T07:37:18.129Z,20.88
2019-03-31T07:38:23.575Z,19.98
2019-03-31T07:39:29.516Z,19.03
2019-03-31T07:40:35.003Z,18.60
2019-03-31T07:41:40.413Z,18.85
2019-03-31T07:42:45.830Z,16.87
2019-03-31T07:43:51.217Z,17.43
2019-03-31T07:44:56.442Z,17.70
2019-03-31T07:46:01.728Z,17.70
2019-03-31T07:47:06.995Z,17.63
2019-03-31T07:48:12.330Z,17.23
2019-03-31T07:49:17.760Z,16.50
2019-03-31T07:50:23.359Z,17.87
2019-03-31T07:51:28.668Z,17.70
2019-03-31T07:52:34.110Z,17.30
2019-03-31T07:53:39.455Z,15.90
2019-03-31T07:54:44.742Z,16.50
2019-03-31T07:55:50.162Z,17.97
2019-03-31T07:56:55.529Z,17.30
2019-03-31T07:58:00.740Z,17.70
2019-03-31T07:59:06.078Z,15.57
2019-03-31T08:00:14.362Z,15.60
2019-03-31T08:01:19.579Z,17.40
2019-03-31T08:02:25.132Z,17.40
2019-03-31T08:03:32.730Z,16.10
2019-03-31T08:04:37.974Z,16.20
2019-03-31T08:05:43.326Z,15.10
2019-03-31T08:06:48.570Z,14.97
2019-03-31T08:07:54.285Z,14.73
2019-03-31T08:08:59.586Z,16.17
2019-03-31T08:10:05.541Z,14.57
2019-03-31T08:11:10.874Z,15.78
2019-03-31T08:12:16.376Z,14.57
2019-03-31T08:13:21.724Z,15.67
2019-03-31T08:14:27.022Z,15.00
2019-03-31T08:15:32.368Z,14.57
2019-03-31T08:16:37.775Z,15.13
2019-03-31T08:17:43.037Z,15.17
2019-03-31T08:18:48.469Z,15.37
2019-03-31T08:19:54.614Z,15.87
2019-03-31T08:20:59.921Z,17.07
2019-03-31T08:22:05.412Z,17.27
2019-03-31T08:23:10.875Z,16.63
2019-03-31T08:24:16.127Z,15.30
2019-03-31T08:25:21.604Z,16.87
2019-03-31T08:26:26.873Z,16.27
2019-03-31T08:27:32.140Z,15.77
2019-03-31T08:28:37.427Z,15.27
2019-03-31T08:29:43.338Z,16.10
2019-03-31T08:30:48.596Z,16.27
2019-03-31T08:31:54.289Z,15.70
2019-03-31T08:32:59.595Z,15.33
2019-03-31T08:34:04.923Z,16.87
2019-03-31T08:35:11.011Z,14.40
2019-03-31T08:36:16.346Z,14.97
2019-03-31T08:37:21.745Z,14.47
2019-03-31T08:38:27.152Z,15.00
2019-03-31T08:39:32.467Z,14.83
2019-03-31T08:40:37.721Z,15.17
2019-03-31T08:41:43.034Z,12.57
2019-03-31T08:42:49.476Z,11.70
2019-03-31T08:43:55.092Z,12.10
2019-03-31T08:45:00.389Z,10.87
2019-03-31T08:46:05.722Z,11.23
2019-03-31T08:47:37.930Z,10.37
2019-03-31T08:48:39.603Z,11.27
2019-03-31T08:49:44.878Z,11.27
2019-03-31T08:50:50.497Z,11.43
2019-03-31T08:51:55.903Z,11.33
2019-03-31T08:53:01.178Z,12.13
2019-03-31T08:54:06.501Z,11.43
2019-03-31T08:55:13.630Z,10.53
2019-03-31T08:56:18.984Z,10.60
2019-03-31T08:57:24.229Z,10.57
2019-03-31T08:58:29.693Z,10.97
2019-03-31T08:59:35.694Z,10.70
2019-03-31T09:00:54.269Z,10.37
2019-03-31T09:02:03.250Z,12.37
2019-03-31T09:03:08.180Z,10.33
2019-03-31T09:04:13.585Z,11.40
2019-03-31T09:05:18.871Z,10.87
2019-03-31T09:06:24.775Z,10.40
2019-03-31T09:07:30.126Z,10.47
2019-03-31T09:08:35.519Z,11.30
2019-03-31T09:09:41.041Z,11.40
2019-03-31T09:10:46.380Z,10.07
2019-03-31T09:11:51.802Z,9.53
2019-03-31T09:12:57.137Z,9.47
2019-03-31T09:14:02.373Z,9.67
2019-03-31T09:15:08.792Z,9.57
2019-03-31T09:16:14.291Z,9.47
2019-03-31T09:17:19.454Z,10.33
2019-03-31T09:18:25.097Z,10.00
2019-03-31T09:19:32.438Z,9.43
2019-03-31T09:20:37.709Z,10.17
2019-03-31T09:21:43.018Z,9.67
2019-03-31T09:22:48.401Z,10.00
2019-03-31T09:23:53.655Z,9.10
2019-03-31T09:24:58.949Z,9.60
2019-03-31T09:26:04.421Z,8.53
2019-03-31T09:27:09.722Z,9.57
2019-03-31T09:28:15.109Z,9.35
2019-03-31T09:29:20.493Z,9.63
2019-03-31T09:30:25.993Z,9.23
2019-03-31T09:31:31.237Z,8.60
2019-03-31T09:32:36.566Z,7.67
2019-03-31T09:33:41.837Z,7.60
2019-03-31T09:34:47.230Z,8.18
2019-03-31T09:35:52.615Z,7.00
2019-03-31T09:36:57.968Z,8.03
2019-03-31T09:38:03.354Z,8.03
2019-03-31T09:39:08.896Z,7.87
2019-03-31T09:40:15.179Z,7.80
2019-03-31T09:41:20.425Z,7.93
2019-03-31T09:42:26.085Z,7.13
2019-03-31T09:43:31.343Z,7.27
2019-03-31T09:44:36.699Z,7.37
2019-03-31T09:45:41.919Z,7.33
2019-03-31T09:46:47.212Z,7.53
2019-03-31T09:47:52.559Z,7.37
2019-03-31T09:48:57.829Z,7.27
2019-03-31T09:50:03.195Z,7.03
2019-03-31T09:51:08.495Z,6.77
2019-03-31T09:52:14.193Z,7.03
2019-03-31T09:53:19.452Z,7.30
2019-03-31T09:54:24.782Z,8.33
2019-03-31T09:55:30.124Z,7.00
2019-03-31T09:56:35.662Z,6.70
2019-03-31T09:57:40.985Z,7.50
2019-03-31T09:58:46.346Z,7.12
2019-03-31T09:59:51.829Z,6.70
2019-03-31T10:00:57.362Z,7.80
2019-03-31T10:02:03.013Z,7.47
2019-03-31T10:03:08.353Z,7.57
2019-03-31T10:04:14.106Z,7.70
2019-03-31T10:05:19.477Z,7.93
2019-03-31T10:06:30.532Z,8.10
2019-03-31T10:07:32.773Z,8.03
2019-03-31T10:08:38.387Z,8.57
2019-03-31T10:09:44.694Z,7.97
2019-03-31T10:10:50.328Z,7.20
2019-03-31T10:11:56.444Z,7.40
2019-03-31T10:13:02.050Z,7.63
2019-03-31T10:14:07.594Z,6.97
2019-03-31T10:15:15.077Z,8.27
2019-03-31T10:16:20.589Z,7.67
2019-03-31T10:17:25.868Z,7.33
2019-03-31T10:18:31.365Z,7.20
2019-03-31T10:19:37.234Z,7.67
2019-03-31T10:20:42.913Z,7.30
2019-03-31T10:21:48.686Z,7.20
2019-03-31T10:22:54.073Z,7.47
2019-03-31T10:23:59.850Z,6.77
2019-03-31T10:25:05.754Z,7.65
2019-03-31T10:26:11.291Z,6.83
2019-03-31T10:27:17.081Z,7.80
2019-03-31T10:28:22.494Z,7.83
2019-03-31T10:29:28.094Z,7.50
2019-03-31T10:30:34.909Z,6.63
2019-03-31T10:31:40.528Z,7.43
2019-03-31T10:32:47.521Z,7.77
2019-03-31T10:33:57.259Z,8.33
2019-03-31T10:35:03.320Z,7.40
2019-03-31T10:36:08.655Z,9.07
2019-03-31T10:37:14.028Z,8.97
2019-03-31T10:38:19.392Z,8.53
2019-03-31T10:39:24.724Z,9.33
2019-03-31T10:40:30.300Z,8.63
2019-03-31T10:41:35.563Z,10.17
2019-03-31T10:42:40.884Z,9.03
2019-03-31T10:43:46.187Z,9.00
2019-03-31T10:44:51.734Z,9.10
2019-03-31T10:45:57.663Z,9.30
2019-03-31T10:47:02.999Z,8.73
2019-03-31T10:48:20.271Z,9.50
2019-03-31T10:49:16.237Z,9.38
2019-03-31T10:50:21.776Z,10.10
2019-03-31T10:51:27.500Z,9.53
2019-03-31T10:52:33.324Z,9.93
2019-03-31T10:53:38.796Z,9.73
2019-03-31T10:54:44.409Z,9.70
2019-03-31T10:55:50.352Z,8.90
2019-03-31T10:56:55.874Z,9.97
2019-03-31T10:58:01.881Z,10.03
2019-03-31T10:59:07.505Z,9.30
2019-03-31T11:00:13.851Z,8.83
2019-03-31T11:01:19.198Z,8.53
2019-03-31T11:02:25.036Z,9.47
2019-03-31T11:03:33.045Z,7.97
2019-03-31T11:04:37.609Z,8.13
2019-03-31T11:05:43.016Z,7.90
2019-03-31T11:06:58.815Z,7.33
2019-03-31T11:07:55.768Z,7.53
2019-03-31T11:09:01.082Z,7.23
2019-03-31T11:10:06.961Z,6.50
2019-03-31T11:11:12.700Z,6.20
2019-03-31T11:12:18.575Z,6.37
2019-03-31T11:13:24.223Z,6.03
2019-03-31T11:14:29.948Z,6.27
2019-03-31T11:15:35.548Z,6.47
2019-03-31T11:16:40.863Z,6.55
2019-03-31T11:17:46.288Z,6.80
2019-03-31T11:18:51.852Z,6.35
2019-03-31T11:20:00.607Z,6.90
2019-03-31T11:21:11.128Z,6.35
2019-03-31T11:22:37.461Z,6.80
2019-03-31T11:23:43.333Z,6.23
2019-03-31T11:24:48.766Z,6.30
2019-03-31T11:25:54.535Z,6.27
2019-03-31T11:27:00.121Z,6.80
2019-03-31T11:28:06.574Z,6.73
2019-03-31T11:29:12.701Z,6.90
2019-03-31T11:30:18.432Z,6.50
2019-03-31T11:31:23.839Z,6.28
2019-03-31T11:32:29.594Z,6.67
2019-03-31T11:33:35.379Z,5.90
2019-03-31T11:34:40.637Z,6.23
2019-03-31T11:35:46.391Z,6.03
2019-03-31T11:36:51.806Z,6.10
2019-03-31T11:37:57.227Z,6.53
2019-03-31T11:39:02.800Z,7.20
2019-03-31T11:40:09.092Z,7.17
2019-03-31T11:41:14.698Z,7.40
2019-03-31T11:42:20.087Z,6.83
2019-03-31T11:43:26.843Z,6.90
2019-03-31T11:44:32.354Z,7.27
2019-03-31T11:45:37.860Z,7.10
2019-03-31T11:46:43.359Z,6.60
2019-03-31T11:47:49.247Z,6.83
2019-03-31T11:48:55.044Z,6.97
2019-03-31T11:50:00.679Z,6.70
2019-03-31T11:51:06.126Z,6.27
2019-03-31T11:52:11.936Z,6.00
2019-03-31T11:53:17.378Z,6.23
2019-03-31T11:54:24.566Z,6.50
2019-03-31T11:55:30.087Z,7.00
2019-03-31T11:56:37.252Z,6.83
2019-03-31T11:57:42.789Z,7.17
2019-03-31T11:58:48.343Z,6.93
2019-03-31T11:59:53.756Z,5.93
2019-03-31T12:00:59.250Z,6.87
2019-03-31T12:02:04.894Z,6.23
2019-03-31T12:03:10.609Z,6.37
2019-03-31T12:04:16.050Z,6.23
2019-03-31T12:05:21.883Z,7.03
2019-03-31T12:06:27.656Z,5.87
2019-03-31T12:07:46.693Z,6.17
2019-03-31T12:08:44.712Z,5.70
2019-03-31T12:09:50.620Z,5.80
2019-03-31T12:10:59.643Z,6.25
2019-03-31T12:12:08.218Z,6.03
2019-03-31T12:13:14.518Z,6.28
2019-03-31T12:14:20.043Z,5.93
2019-03-31T12:15:25.632Z,5.62
2019-03-31T12:16:31.332Z,5.08
2019-03-31T12:17:36.825Z,4.90
2019-03-31T12:18:42.259Z,5.33
2019-03-31T12:19:48.890Z,5.42
2019-03-31T12:20:54.431Z,5.75
2019-03-31T12:22:07.159Z,5.43
2019-03-31T12:23:15.265Z,5.40
2019-03-31T12:24:21.239Z,5.20
2019-03-31T12:25:32.372Z,4.73
2019-03-31T12:26:38.433Z,4.87
2019-03-31T12:27:43.981Z,5.70
2019-03-31T12:28:49.521Z,5.40
2019-03-31T12:29:55.069Z,5.50
2019-03-31T12:31:09.475Z,5.63
2019-03-31T12:32:16.823Z,6.13
2019-03-31T12:33:22.366Z,5.60
2019-03-31T12:34:31.421Z,5.80
2019-03-31T12:35:39.777Z,6.05
2019-03-31T12:36:45.554Z,6.22
2019-03-31T12:37:51.498Z,6.33
2019-03-31T12:38:57.065Z,4.97
2019-03-31T12:40:14.972Z,5.42
2019-03-31T12:41:23.962Z,5.57
2019-03-31T12:42:29.721Z,6.20
2019-03-31T12:43:35.366Z,5.20
2019-03-31T12:44:41.354Z,5.53
2019-03-31T12:45:53.884Z,5.60
2019-03-31T12:46:59.503Z,5.13
2019-03-31T12:48:13.055Z,3.90
2019-03-31T12:49:37.782Z,4.10
2019-03-31T12:51:11.452Z,4.37
2019-03-31T12:52:24.172Z,4.75
2019-03-31T12:53:29.709Z,4.50
2019-03-31T12:54:35.424Z,5.10
2019-03-31T12:55:41.538Z,4.65
2019-03-31T12:56:47.187Z,4.72
2019-03-31T12:57:55.548Z,4.60
2019-03-31T12:59:02.567Z,4.65
2019-03-31T13:00:08.915Z,4.60
2019-03-31T13:01:15.527Z,4.67
2019-03-31T13:02:21.382Z,5.00
2019-03-31T13:03:27.145Z,4.70
2019-03-31T13:04:33.125Z,4.80
2019-03-31T13:05:38.554Z,4.55
2019-03-31T13:06:44.063Z,3.90
2019-03-31T13:07:56.371Z,4.47
2019-03-31T13:08:57.246Z,5.37
2019-03-31T13:10:03.057Z,4.33
2019-03-31T13:11:08.478Z,5.50
2019-03-31T13:12:14.861Z,4.62
2019-03-31T13:13:20.416Z,4.95
2019-03-31T13:14:25.819Z,4.60
2019-03-31T13:15:31.659Z,4.78
2019-03-31T13:16:38.569Z,5.10
2019-03-31T13:17:47.112Z,4.77
2019-03-31T13:18:52.637Z,3.95
2019-03-31T13:20:17.895Z,3.50
2019-03-31T13:21:24.457Z,3.12
2019-03-31T13:22:30.301Z,2.80
2019-03-31T13:23:35.860Z,3.57
2019-03-31T13:24:41.462Z,2.75
2019-03-31T13:25:48.925Z,2.77
2019-03-31T13:26:54.709Z,2.70
2019-03-31T13:28:00.396Z,3.12
2019-03-31T13:29:06.069Z,3.10
2019-03-31T13:30:13.430Z,3.03
2019-03-31T13:31:19.459Z,2.93
2019-03-31T13:32:25.041Z,2.62
2019-03-31T13:33:30.494Z,2.58
2019-03-31T13:34:36.094Z,2.83
2019-03-31T13:35:41.610Z,3.10
2019-03-31T13:36:47.240Z,2.87
2019-03-31T13:37:53.031Z,2.45
2019-03-31T13:38:58.659Z,2.35
2019-03-31T13:40:07.372Z,3.58
2019-03-31T13:41:13.277Z,3.17
2019-03-31T13:42:19.143Z,2.87
2019-03-31T13:43:24.575Z,2.90
2019-03-31T13:44:30.664Z,2.70
2019-03-31T13:45:41.563Z,2.92
2019-03-31T13:46:50.642Z,3.12
2019-03-31T13:47:58.723Z,3.00
2019-03-31T13:49:06.063Z,3.33
2019-03-31T13:50:12.934Z,2.75
2019-03-31T13:51:28.149Z,2.83
2019-03-31T13:52:36.941Z,2.90
2019-03-31T13:53:42.633Z,2.40
2019-03-31T13:54:48.092Z,2.60
2019-03-31T13:55:54.088Z,2.92
2019-03-31T13:56:59.877Z,3.65
2019-03-31T13:58:13.935Z,2.67
2019-03-31T13:59:18.684Z,2.95
2019-03-31T14:00:57.205Z,2.42
2019-03-31T14:02:08.420Z,2.50
2019-03-31T14:03:14.637Z,3.50
2019-03-31T14:04:20.034Z,2.87
2019-03-31T14:05:37.409Z,2.87
2019-03-31T14:06:55.480Z,3.42
2019-03-31T14:08:04.460Z,2.53
2019-03-31T14:09:10.793Z,2.42
2019-03-31T14:10:16.891Z,2.50
2019-03-31T14:11:26.541Z,3.08
2019-03-31T14:12:51.118Z,3.50
2019-03-31T14:13:57.092Z,3.37
2019-03-31T14:15:02.866Z,2.75
2019-03-31T14:16:08.170Z,3.20
2019-03-31T14:17:14.220Z,3.33
2019-03-31T14:18:20.650Z,3.58
2019-03-31T14:19:52.281Z,3.33
2019-03-31T14:20:57.844Z,4.05
2019-03-31T14:22:18.209Z,3.70
2019-03-31T14:23:46.945Z,3.40
2019-03-31T14:24:57.740Z,2.77